createdAt,value
2022-10-28T00:00:40.390Z,101457.63
2022-10-28T00:04:12.388Z,101455.78
2022-10-28T00:07:36.413Z,101439.97
2022-10-28T00:11:00.382Z,101443.66
2022-10-28T00:14:25.408Z,101446.97
2022-10-28T00:17:49.401Z,101433.50
2022-10-28T00:21:21.431Z,101435.34
2022-10-28T00:24:45.427Z,101422.19
2022-10-28T00:28:09.408Z,101433.53
2022-10-28T00:31:35.431Z,101425.00
2022-10-28T00:34:58.398Z,101421.16
2022-10-28T00:38:22.421Z,101415.56
2022-10-28T00:41:49.415Z,101417.09
2022-10-28T00:45:15.437Z,101404.66
2022-10-28T00:48:38.423Z,101402.22
2022-10-28T00:52:06.424Z,101401.38
2022-10-28T00:55:31.414Z,101403.69
2022-10-28T00:58:55.431Z,101402.13
2022-10-28T01:02:18.530Z,101389.97
2022-10-28T01:05:44.453Z,101393.44
2022-10-28T01:09:08.452Z,101384.66
2022-10-28T01:12:47.429Z,101388.84
2022-10-28T01:16:14.461Z,101394.41
2022-10-28T01:19:56.436Z,101387.91
2022-10-28T01:24:01.436Z,101394.78
2022-10-28T01:27:26.460Z,101391.28
2022-10-28T01:31:18.418Z,101391.56
2022-10-28T01:35:07.461Z,101385.56
2022-10-28T01:39:03.440Z,101376.72
2022-10-28T01:42:37.506Z,101382.56
2022-10-28T01:46:13.452Z,101386.19
2022-10-28T01:49:47.483Z,101378.97
2022-10-28T01:53:13.455Z,101369.25
2022-10-28T01:56:49.458Z,101366.28
2022-10-28T02:00:13.470Z,101351.63
2022-10-28T02:03:37.479Z,101355.88
2022-10-28T02:07:05.506Z,101351.16
2022-10-28T02:10:32.471Z,101331.09
2022-10-28T02:14:27.458Z,101356.66
2022-10-28T02:17:59.463Z,101350.97
2022-10-28T02:21:33.465Z,101339.72
2022-10-28T02:25:06.501Z,101334.81
2022-10-28T02:28:39.470Z,101325.06
2022-10-28T02:32:11.502Z,101319.78
2022-10-28T02:36:06.583Z,101317.00
2022-10-28T02:39:34.466Z,101316.00
2022-10-28T02:43:09.492Z,101314.75
2022-10-28T02:46:32.481Z,101303.28
2022-10-28T02:49:59.490Z,101291.75
2022-10-28T02:53:33.557Z,101294.66
2022-10-28T02:57:30.526Z,101287.94
2022-10-28T03:00:59.506Z,101274.84
2022-10-28T03:04:23.509Z,101274.75
2022-10-28T03:07:47.478Z,101277.03
2022-10-28T03:11:12.520Z,101276.31
2022-10-28T03:14:36.488Z,101279.66
2022-10-28T03:17:59.516Z,101276.97
2022-10-28T03:21:23.497Z,101269.66
2022-10-28T03:24:47.664Z,101279.50
2022-10-28T03:28:12.485Z,101275.59
2022-10-28T03:31:36.559Z,101273.38
2022-10-28T03:35:00.502Z,101273.69
2022-10-28T03:38:24.531Z,101271.88
2022-10-28T03:41:48.500Z,101269.41
2022-10-28T03:45:11.531Z,101262.78
2022-10-28T03:48:35.532Z,101265.16
2022-10-28T03:51:58.504Z,101267.25
2022-10-28T03:55:22.530Z,101265.66
2022-10-28T03:58:46.618Z,101262.25
2022-10-28T04:02:10.659Z,101253.06
2022-10-28T04:05:29.111Z,101254.25
2022-10-28T04:08:47.547Z,101246.91
2022-10-28T04:12:11.529Z,101241.59
2022-10-28T04:15:35.558Z,101248.78
2022-10-28T04:18:59.516Z,101244.25
2022-10-28T04:22:23.551Z,101238.44
2022-10-28T04:25:47.559Z,101244.25
2022-10-28T04:29:11.533Z,101230.28
2022-10-28T04:32:35.547Z,101248.53
2022-10-28T04:35:58.525Z,101244.41
2022-10-28T04:39:22.551Z,101239.91
2022-10-28T04:42:46.534Z,101250.56
2022-10-28T04:46:13.576Z,101245.06
2022-10-28T04:49:38.826Z,101239.88
2022-10-28T04:53:02.553Z,101248.38
2022-10-28T04:56:25.583Z,101256.81
2022-10-28T04:59:50.522Z,101247.75
2022-10-28T05:03:16.587Z,101243.31
2022-10-28T05:06:40.563Z,101245.75
2022-10-28T05:10:04.541Z,101249.19
2022-10-28T05:13:28.566Z,101243.38
2022-10-28T05:16:51.553Z,101247.34
2022-10-28T05:20:15.565Z,101250.44
2022-10-28T05:23:39.549Z,101244.81
2022-10-28T05:27:03.597Z,101242.94
2022-10-28T05:30:28.556Z,101236.13
2022-10-28T05:33:53.610Z,101245.63
2022-10-28T05:37:17.542Z,101232.97
2022-10-28T05:40:43.598Z,101195.34
2022-10-28T05:44:06.595Z,101231.72
2022-10-28T05:47:30.617Z,101239.47
2022-10-28T05:50:54.564Z,101243.91
2022-10-28T05:54:19.622Z,101247.75
2022-10-28T05:57:43.624Z,101253.41
2022-10-28T06:01:06.621Z,101250.13
2022-10-28T06:04:30.568Z,101264.38
2022-10-28T06:07:55.604Z,101276.00
2022-10-28T06:11:18.074Z,101278.81
2022-10-28T06:14:41.052Z,101271.94
2022-10-28T06:18:04.076Z,101272.66
2022-10-28T06:21:28.060Z,101273.78
2022-10-28T06:24:52.088Z,101281.59
2022-10-28T06:28:16.077Z,101270.75
2022-10-28T06:31:40.111Z,101282.78
2022-10-28T06:35:03.072Z,101287.66
2022-10-28T06:38:27.107Z,101281.84
2022-10-28T06:41:51.085Z,101274.31
2022-10-28T06:45:15.142Z,101287.25
2022-10-28T06:48:40.615Z,101280.13
2022-10-28T06:52:03.647Z,101293.03
2022-10-28T06:55:27.647Z,101290.06
2022-10-28T06:58:50.667Z,101295.06
2022-10-28T07:02:14.808Z,101305.81
2022-10-28T07:05:39.666Z,101320.19
2022-10-28T07:08:57.217Z,101314.47
2022-10-28T07:15:45.692Z,101328.88
2022-10-28T07:19:10.660Z,101343.13
2022-10-28T07:22:34.678Z,101351.28
2022-10-28T07:25:59.660Z,101360.31
2022-10-28T07:29:23.682Z,101363.94
2022-10-28T07:32:47.674Z,101370.66
2022-10-28T07:36:12.681Z,101370.75
2022-10-28T07:43:04.673Z,101367.50
2022-10-28T07:46:27.664Z,101372.16
2022-10-28T07:49:51.721Z,101377.84
2022-10-28T07:56:44.747Z,101379.22
2022-10-28T08:00:08.670Z,101377.56
2022-10-28T08:03:38.683Z,101380.59
2022-10-28T08:07:03.647Z,101366.41
2022-10-28T08:10:27.695Z,101385.50
2022-10-28T08:13:51.672Z,101392.56
2022-10-28T08:17:15.644Z,101389.31
2022-10-28T08:20:38.671Z,101385.75
2022-10-28T08:24:02.650Z,101393.66
2022-10-28T08:27:25.658Z,101391.50
2022-10-28T08:30:57.246Z,101395.03
2022-10-28T08:34:30.670Z,101401.84
2022-10-28T08:37:53.864Z,101401.56
2022-10-28T08:41:29.681Z,101398.56
2022-10-28T08:45:06.652Z,101399.38
2022-10-28T08:48:37.671Z,101408.09
2022-10-28T08:52:10.666Z,101393.41
2022-10-28T08:55:43.765Z,101408.63
2022-10-28T08:59:08.656Z,101410.25
2022-10-28T09:02:38.695Z,101401.25
2022-10-28T09:06:04.670Z,101399.63
2022-10-28T09:09:37.704Z,101401.13
2022-10-28T09:13:01.250Z,101405.28
2022-10-28T09:16:31.721Z,101402.50
2022-10-28T09:19:58.667Z,101402.75
2022-10-28T09:23:25.701Z,101408.41
2022-10-28T09:27:16.664Z,101392.88
2022-10-28T09:30:51.704Z,101402.63
2022-10-28T09:35:05.727Z,101399.88
2022-10-28T09:38:46.671Z,101390.13
2022-10-28T09:42:11.706Z,101401.19
2022-10-28T09:45:40.674Z,101405.25
2022-10-28T09:49:08.722Z,101394.63
2022-10-28T09:52:39.681Z,101401.97
2022-10-28T09:56:05.805Z,101406.34
2022-10-28T09:59:30.688Z,101403.91
2022-10-28T10:02:53.746Z,101398.03
2022-10-28T10:06:27.671Z,101402.97
2022-10-28T10:09:51.772Z,101396.69
2022-10-28T10:13:18.680Z,101399.94
2022-10-28T10:17:05.727Z,101397.75
2022-10-28T10:20:29.708Z,101389.88
2022-10-28T10:23:53.722Z,101391.50
2022-10-28T10:27:29.732Z,101391.50
2022-10-28T10:30:59.713Z,101391.97
2022-10-28T10:34:38.743Z,101398.72
2022-10-28T10:38:03.721Z,101398.69
2022-10-28T10:41:26.738Z,101385.53
2022-10-28T10:44:51.706Z,101401.09
2022-10-28T10:48:28.757Z,101401.63
2022-10-28T10:51:51.700Z,101394.03
2022-10-28T10:55:18.748Z,101396.06
2022-10-28T10:58:48.710Z,101397.66
2022-10-28T11:02:13.858Z,101399.31
2022-10-28T11:05:38.747Z,101400.44
2022-10-28T11:09:03.893Z,101352.91
2022-10-28T11:12:43.758Z,101396.59
2022-10-28T11:16:20.742Z,101394.59
2022-10-28T11:19:45.748Z,101388.28
2022-10-28T11:23:35.756Z,101398.09
2022-10-28T11:27:25.737Z,101392.59
2022-10-28T11:30:58.903Z,101395.72
2022-10-28T11:34:53.728Z,101389.19
2022-10-28T11:38:27.769Z,101392.50
2022-10-28T11:42:00.773Z,101398.69
2022-10-28T11:45:38.749Z,101398.91
2022-10-28T11:49:04.747Z,101397.56
2022-10-28T11:52:51.792Z,101394.34
2022-10-28T11:56:50.732Z,101381.31
2022-10-28T12:00:50.765Z,101369.66
2022-10-28T12:04:14.767Z,101365.88
2022-10-28T12:07:40.801Z,101357.13
2022-10-28T12:11:14.790Z,101360.16
2022-10-28T12:15:00.750Z,101360.66
2022-10-28T12:18:47.784Z,101354.97
2022-10-28T12:22:42.868Z,101347.03
2022-10-28T12:26:08.762Z,101340.22
2022-10-28T12:29:53.788Z,101340.19
2022-10-28T12:33:42.785Z,101336.13
2022-10-28T12:37:15.766Z,101334.72
2022-10-28T12:40:46.786Z,101328.72
2022-10-28T12:44:24.806Z,101325.44
2022-10-28T12:48:00.013Z,101321.81
2022-10-28T12:51:43.812Z,101326.53
2022-10-28T12:59:12.800Z,101312.41
2022-10-28T13:02:41.793Z,101313.69
2022-10-28T13:06:26.879Z,101301.91
2022-10-28T13:09:53.820Z,101309.72
2022-10-28T13:13:56.845Z,101299.03
2022-10-28T13:17:50.836Z,101301.50
2022-10-28T13:21:38.797Z,101295.78
2022-10-28T13:25:10.770Z,101302.53
2022-10-28T13:28:35.801Z,101293.56
2022-10-28T13:32:02.790Z,101286.16
2022-10-28T13:35:38.829Z,101289.75
2022-10-28T13:39:11.790Z,101276.22
2022-10-28T13:42:35.819Z,101268.06
2022-10-28T13:46:08.774Z,101265.81
2022-10-28T13:49:43.832Z,101266.06
2022-10-28T13:53:42.818Z,101260.03
2022-10-28T13:57:07.935Z,101264.44
2022-10-28T14:00:34.789Z,101250.69
2022-10-28T14:04:05.841Z,101256.66
2022-10-28T14:07:29.786Z,101244.69
2022-10-28T14:10:53.823Z,101247.47
2022-10-28T14:14:18.845Z,101257.78
2022-10-28T14:17:53.243Z,101249.63
2022-10-28T14:21:17.815Z,101250.97
2022-10-28T14:24:46.905Z,101251.81
2022-10-28T14:28:09.819Z,101246.69
2022-10-28T14:31:34.831Z,101248.59
2022-10-28T14:34:58.821Z,101247.53
2022-10-28T14:38:40.827Z,101244.22
2022-10-28T14:42:24.841Z,101247.00
2022-10-28T14:45:59.836Z,101252.22
2022-10-28T14:49:41.805Z,101253.59
2022-10-28T14:53:06.961Z,101246.66
2022-10-28T14:56:40.815Z,101249.16
2022-10-28T15:00:05.998Z,101242.91
2022-10-28T15:03:29.828Z,101248.63
2022-10-28T15:06:57.861Z,101246.19
2022-10-28T15:10:45.402Z,101239.09
2022-10-28T15:14:08.822Z,101234.13
2022-10-28T15:17:34.951Z,101231.59
2022-10-28T15:20:58.834Z,101229.97
2022-10-28T15:24:28.842Z,101231.25
2022-10-28T15:27:54.000Z,101230.22
2022-10-28T15:31:18.843Z,101227.75
2022-10-28T15:34:44.833Z,101228.81
2022-10-28T15:38:08.850Z,101219.78
2022-10-28T15:41:37.862Z,101221.88
2022-10-28T15:45:02.824Z,101214.34
2022-10-28T15:48:27.871Z,101210.81
2022-10-28T15:51:50.823Z,101204.00
2022-10-28T15:55:15.868Z,101204.53
2022-10-28T15:58:55.889Z,101200.50
2022-10-28T16:02:56.281Z,101202.97
2022-10-28T16:06:20.902Z,101200.50
2022-10-28T16:09:46.841Z,101196.72
2022-10-28T16:13:11.691Z,101191.38
2022-10-28T16:16:43.841Z,101202.22
2022-10-28T16:20:26.025Z,101194.41
2022-10-28T16:23:53.842Z,101199.56
2022-10-28T16:27:33.891Z,101203.56
2022-10-28T16:30:57.864Z,101207.66
2022-10-28T16:34:24.885Z,101212.28
2022-10-28T16:37:54.713Z,101215.00
2022-10-28T16:41:21.974Z,101210.66
2022-10-28T16:44:45.865Z,101209.09
2022-10-28T16:48:08.890Z,101204.22
2022-10-28T16:51:31.882Z,101201.44
2022-10-28T16:54:55.887Z,101210.09
2022-10-28T16:58:21.893Z,101207.66
2022-10-28T17:01:49.968Z,101213.28
2022-10-28T17:05:14.900Z,101213.00
2022-10-28T17:12:21.902Z,101223.59
2022-10-28T17:15:45.855Z,101225.50
2022-10-28T17:19:08.907Z,101223.66
2022-10-28T17:22:27.457Z,101221.22
2022-10-28T17:25:44.912Z,101219.56
2022-10-28T17:29:08.876Z,101222.56
2022-10-28T17:32:31.911Z,101222.03
2022-10-28T17:35:55.876Z,101222.91
2022-10-28T17:39:22.024Z,101225.81
2022-10-28T17:42:49.893Z,101221.22
2022-10-28T17:46:20.919Z,101219.31
2022-10-28T17:49:44.960Z,101219.88
2022-10-28T17:53:08.914Z,101222.59
2022-10-28T17:56:32.897Z,101216.97
2022-10-28T17:59:57.919Z,101224.88
2022-10-28T18:03:30.688Z,101232.50
2022-10-28T18:06:50.909Z,101228.72
2022-10-28T18:10:13.911Z,101222.75
2022-10-28T18:13:45.928Z,101211.34
2022-10-28T18:17:09.895Z,101219.81
2022-10-28T18:20:32.923Z,101213.03
2022-10-28T18:23:49.496Z,101216.03
2022-10-28T18:27:06.935Z,101219.03
2022-10-28T18:30:30.912Z,101211.94
2022-10-28T18:33:54.934Z,101206.50
2022-10-28T18:37:19.911Z,101193.97
2022-10-28T18:40:43.939Z,101190.19
2022-10-28T18:44:14.917Z,101189.66
2022-10-28T18:47:39.927Z,101198.28
2022-10-28T18:51:17.931Z,101182.13
2022-10-28T18:54:41.953Z,101189.97
2022-10-28T18:58:05.915Z,101203.63
2022-10-28T19:01:33.146Z,101198.63
2022-10-28T19:04:56.913Z,101199.53
2022-10-28T19:08:21.968Z,101198.06
2022-10-28T19:11:46.923Z,101202.44
2022-10-28T19:15:09.971Z,101188.66
2022-10-28T19:18:33.932Z,101179.94
2022-10-28T19:21:58.968Z,101166.88
2022-10-28T19:25:22.928Z,101178.09
2022-10-28T19:28:50.967Z,101173.31
2022-10-28T19:32:14.936Z,101175.84
2022-10-28T19:35:37.977Z,101185.41
2022-10-28T19:39:02.937Z,101171.34
2022-10-28T19:42:25.974Z,101178.16
2022-10-28T19:45:50.940Z,101168.31
2022-10-28T19:49:15.970Z,101159.63
2022-10-28T19:52:40.981Z,101160.47
2022-10-28T19:56:06.040Z,101162.91
2022-10-28T19:59:29.985Z,101157.59
2022-10-28T20:02:53.952Z,101148.50
2022-10-28T20:06:24.001Z,101161.38
2022-10-28T20:09:47.981Z,101153.16
2022-10-28T20:13:13.004Z,101160.69
2022-10-28T20:16:36.947Z,101148.34
2022-10-28T20:20:01.020Z,101153.06
2022-10-28T20:23:18.520Z,101165.97
2022-10-28T20:26:41.002Z,101153.50
2022-10-28T20:30:07.983Z,101154.53
2022-10-28T20:33:32.957Z,101168.31
2022-10-28T20:36:58.991Z,101163.91
2022-10-28T20:40:22.978Z,101155.50
2022-10-28T20:43:46.990Z,101158.38
2022-10-28T20:47:10.963Z,101156.00
2022-10-28T20:50:34.989Z,101154.22
2022-10-28T20:53:59.007Z,101159.34
2022-10-28T20:57:22.956Z,101151.25
2022-10-28T21:00:47.020Z,101143.53
2022-10-28T21:04:11.975Z,101156.09
2022-10-28T21:07:36.016Z,101153.16
2022-10-28T21:10:59.999Z,101139.75
2022-10-28T21:14:24.076Z,101132.00
2022-10-28T21:17:47.997Z,101138.34
2022-10-28T21:21:13.021Z,101130.34
2022-10-28T21:24:31.870Z,101140.25
2022-10-28T21:27:49.024Z,101136.38
2022-10-28T21:31:20.051Z,101135.00
2022-10-28T21:34:44.042Z,101147.50
2022-10-28T21:38:09.039Z,101176.31
2022-10-28T21:41:35.985Z,101174.53
2022-10-28T21:44:59.042Z,101171.22
2022-10-28T21:48:22.986Z,101156.41
2022-10-28T21:51:47.025Z,101160.72
2022-10-28T21:55:20.774Z,101158.44
2022-10-28T21:58:53.011Z,101161.56
2022-10-28T22:02:17.109Z,101168.69
2022-10-28T22:05:41.005Z,101174.75
2022-10-28T22:09:11.021Z,101178.22
2022-10-28T22:12:35.024Z,101169.97
2022-10-28T22:15:59.032Z,101158.81
2022-10-28T22:19:25.025Z,101160.78
2022-10-28T22:22:49.053Z,101171.81
2022-10-28T22:26:10.636Z,101178.56
2022-10-28T22:29:28.059Z,101166.72
2022-10-28T22:36:16.033Z,101182.03
2022-10-28T22:39:40.052Z,101161.28
2022-10-28T22:43:05.041Z,101182.75
2022-10-28T22:46:29.057Z,101178.44
2022-10-28T22:49:53.048Z,101193.44
2022-10-28T22:53:18.061Z,101189.47
2022-10-28T22:56:41.033Z,101195.72
2022-10-28T23:00:05.216Z,101176.72
2022-10-28T23:03:29.051Z,101177.88
2022-10-28T23:06:53.064Z,101178.75
2022-10-28T23:10:17.083Z,101182.47
2022-10-28T23:13:41.056Z,101188.78
2022-10-28T23:17:05.085Z,101175.22
2022-10-28T23:20:29.044Z,101157.69
2022-10-28T23:23:56.086Z,101162.88
2022-10-28T23:27:13.622Z,101178.91
2022-10-28T23:30:31.076Z,101181.00
2022-10-28T23:33:55.046Z,101176.66
2022-10-28T23:37:12.090Z,101166.59
2022-10-28T23:40:36.042Z,101167.97
2022-10-28T23:44:01.093Z,101164.03
2022-10-28T23:47:25.099Z,101164.78
2022-10-28T23:50:49.070Z,101156.69
2022-10-28T23:54:13.110Z,101153.13
2022-10-28T23:57:37.076Z,101141.34
